sensor_id;sensor_type;location;lat;lon;timestamp;P1;durP1;ratioP1;P2;durP2;ratioP2
9436;SDS011;4757;59.334;18.034;2023-12-20T00:00:09;6.07;;;2.17;;
9436;SDS011;4757;59.334;18.034;2023-12-20T00:02:37;6.77;;;2.00;;
9436;SDS011;4757;59.334;18.034;2023-12-20T00:05:04;9.60;;;2.67;;
9436;SDS011;4757;59.334;18.034;2023-12-20T00:07:32;8.70;;;2.47;;
9436;SDS011;4757;59.334;18.034;2023-12-20T00:10:00;6.97;;;1.90;;
9436;SDS011;4757;59.334;18.034;2023-12-20T00:12:27;5.80;;;2.30;;
9436;SDS011;4757;59.334;18.034;2023-12-20T00:14:54;10.30;;;2.60;;
9436;SDS011;4757;59.334;18.034;2023-12-20T00:17:21;9.20;;;2.67;;
9436;SDS011;4757;59.334;18.034;2023-12-20T00:19:49;11.73;;;2.10;;
9436;SDS011;4757;59.334;18.034;2023-12-20T00:22:16;5.43;;;2.00;;
9436;SDS011;4757;59.334;18.034;2023-12-20T00:24:43;8.03;;;2.93;;
9436;SDS011;4757;59.334;18.034;2023-12-20T00:27:11;6.27;;;2.40;;
9436;SDS011;4757;59.334;18.034;2023-12-20T00:29:38;10.80;;;3.37;;
9436;SDS011;4757;59.334;18.034;2023-12-20T00:32:05;4.23;;;1.73;;
9436;SDS011;4757;59.334;18.034;2023-12-20T00:34:32;6.30;;;1.97;;
9436;SDS011;4757;59.334;18.034;2023-12-20T00:37:00;4.97;;;2.37;;
9436;SDS011;4757;59.334;18.034;2023-12-20T00:39:27;7.13;;;2.07;;
9436;SDS011;4757;59.334;18.034;2023-12-20T00:41:54;13.00;;;2.30;;
9436;SDS011;4757;59.334;18.034;2023-12-20T00:44:22;11.57;;;2.57;;
9436;SDS011;4757;59.334;18.034;2023-12-20T00:46:49;16.13;;;2.97;;
9436;SDS011;4757;59.334;18.034;2023-12-20T00:49:17;10.17;;;2.60;;
9436;SDS011;4757;59.334;18.034;2023-12-20T00:51:45;8.37;;;2.03;;
9436;SDS011;4757;59.334;18.034;2023-12-20T00:54:13;12.43;;;2.63;;
9436;SDS011;4757;59.334;18.034;2023-12-20T00:56:40;8.00;;;3.07;;
9436;SDS011;4757;59.334;18.034;2023-12-20T00:59:08;3.10;;;2.20;;
9436;SDS011;4757;59.334;18.034;2023-12-20T01:01:36;6.07;;;2.13;;
9436;SDS011;4757;59.334;18.034;2023-12-20T01:04:04;7.10;;;2.17;;
9436;SDS011;4757;59.334;18.034;2023-12-20T01:06:32;7.37;;;2.50;;
9436;SDS011;4757;59.334;18.034;2023-12-20T01:09:00;8.33;;;1.83;;
9436;SDS011;4757;59.334;18.034;2023-12-20T01:11:28;9.80;;;1.90;;
9436;SDS011;4757;59.334;18.034;2023-12-20T01:13:56;12.87;;;2.27;;
9436;SDS011;4757;59.334;18.034;2023-12-20T01:16:24;12.00;;;3.03;;
9436;SDS011;4757;59.334;18.034;2023-12-20T01:18:51;4.70;;;1.77;;
9436;SDS011;4757;59.334;18.034;2023-12-20T01:21:18;8.17;;;2.13;;
9436;SDS011;4757;59.334;18.034;2023-12-20T01:23:46;18.23;;;3.73;;
9436;SDS011;4757;59.334;18.034;2023-12-20T01:26:14;10.13;;;2.20;;
9436;SDS011;4757;59.334;18.034;2023-12-20T01:28:41;7.10;;;3.17;;
9436;SDS011;4757;59.334;18.034;2023-12-20T01:31:10;12.13;;;2.60;;
9436;SDS011;4757;59.334;18.034;2023-12-20T01:33:38;14.97;;;3.40;;
9436;SDS011;4757;59.334;18.034;2023-12-20T01:36:05;7.43;;;1.70;;
9436;SDS011;4757;59.334;18.034;2023-12-20T01:38:32;7.67;;;3.00;;
9436;SDS011;4757;59.334;18.034;2023-12-20T01:41:00;10.47;;;3.00;;
9436;SDS011;4757;59.334;18.034;2023-12-20T01:43:27;14.73;;;2.57;;
9436;SDS011;4757;59.334;18.034;2023-12-20T01:45:58;4.50;;;2.00;;
9436;SDS011;4757;59.334;18.034;2023-12-20T01:48:26;6.97;;;2.10;;
9436;SDS011;4757;59.334;18.034;2023-12-20T01:50:54;11.10;;;3.33;;
9436;SDS011;4757;59.334;18.034;2023-12-20T01:53:23;6.87;;;2.07;;
9436;SDS011;4757;59.334;18.034;2023-12-20T01:55:54;6.33;;;2.10;;
9436;SDS011;4757;59.334;18.034;2023-12-20T01:58:28;6.40;;;1.77;;
9436;SDS011;4757;59.334;18.034;2023-12-20T02:00:56;8.80;;;2.17;;
9436;SDS011;4757;59.334;18.034;2023-12-20T02:03:24;8.17;;;2.30;;
9436;SDS011;4757;59.334;18.034;2023-12-20T02:05:52;6.97;;;2.27;;
9436;SDS011;4757;59.334;18.034;2023-12-20T02:08:20;10.70;;;1.80;;
9436;SDS011;4757;59.334;18.034;2023-12-20T02:10:48;7.33;;;1.90;;
9436;SDS011;4757;59.334;18.034;2023-12-20T02:13:15;9.00;;;2.07;;
9436;SDS011;4757;59.334;18.034;2023-12-20T02:15:46;8.63;;;2.43;;
9436;SDS011;4757;59.334;18.034;2023-12-20T02:18:13;13.20;;;3.13;;
9436;SDS011;4757;59.334;18.034;2023-12-20T02:20:43;6.50;;;2.13;;
9436;SDS011;4757;59.334;18.034;2023-12-20T02:23:11;6.70;;;2.17;;
9436;SDS011;4757;59.334;18.034;2023-12-20T02:25:38;9.00;;;2.97;;
9436;SDS011;4757;59.334;18.034;2023-12-20T02:28:05;6.30;;;2.00;;
9436;SDS011;4757;59.334;18.034;2023-12-20T02:30:33;12.50;;;2.60;;
9436;SDS011;4757;59.334;18.034;2023-12-20T02:33:00;11.73;;;3.03;;
9436;SDS011;4757;59.334;18.034;2023-12-20T02:35:30;10.40;;;2.13;;
9436;SDS011;4757;59.334;18.034;2023-12-20T02:37:57;15.03;;;2.17;;
9436;SDS011;4757;59.334;18.034;2023-12-20T02:40:24;8.80;;;2.10;;
9436;SDS011;4757;59.334;18.034;2023-12-20T02:42:51;4.87;;;2.10;;
9436;SDS011;4757;59.334;18.034;2023-12-20T02:45:19;10.07;;;1.77;;
9436;SDS011;4757;59.334;18.034;2023-12-20T02:47:46;8.03;;;2.23;;
9436;SDS011;4757;59.334;18.034;2023-12-20T02:50:13;8.47;;;2.67;;
9436;SDS011;4757;59.334;18.034;2023-12-20T02:52:44;15.73;;;2.47;;
9436;SDS011;4757;59.334;18.034;2023-12-20T02:55:12;8.80;;;2.63;;
9436;SDS011;4757;59.334;18.034;2023-12-20T02:57:39;6.63;;;1.83;;
9436;SDS011;4757;59.334;18.034;2023-12-20T03:00:10;8.43;;;3.03;;
9436;SDS011;4757;59.334;18.034;2023-12-20T03:02:37;7.27;;;2.77;;
9436;SDS011;4757;59.334;18.034;2023-12-20T03:05:05;7.03;;;1.90;;
9436;SDS011;4757;59.334;18.034;2023-12-20T03:07:32;6.80;;;2.10;;
9436;SDS011;4757;59.334;18.034;2023-12-20T03:10:00;5.97;;;1.97;;
9436;SDS011;4757;59.334;18.034;2023-12-20T03:12:45;12.20;;;2.70;;
9436;SDS011;4757;59.334;18.034;2023-12-20T03:15:12;4.93;;;1.97;;
9436;SDS011;4757;59.334;18.034;2023-12-20T03:17:40;7.80;;;2.73;;
9436;SDS011;4757;59.334;18.034;2023-12-20T03:20:07;8.80;;;2.17;;
9436;SDS011;4757;59.334;18.034;2023-12-20T03:22:35;11.20;;;1.80;;
9436;SDS011;4757;59.334;18.034;2023-12-20T03:25:02;5.57;;;2.17;;
9436;SDS011;4757;59.334;18.034;2023-12-20T03:27:29;7.33;;;1.97;;
9436;SDS011;4757;59.334;18.034;2023-12-20T03:29:57;9.33;;;3.43;;
9436;SDS011;4757;59.334;18.034;2023-12-20T03:32:24;7.97;;;2.87;;
9436;SDS011;4757;59.334;18.034;2023-12-20T03:34:51;6.43;;;3.30;;
9436;SDS011;4757;59.334;18.034;2023-12-20T03:37:19;6.23;;;1.77;;
9436;SDS011;4757;59.334;18.034;2023-12-20T03:39:46;6.10;;;1.97;;
9436;SDS011;4757;59.334;18.034;2023-12-20T03:42:13;8.77;;;2.37;;
9436;SDS011;4757;59.334;18.034;2023-12-20T03:44:40;5.87;;;2.97;;
9436;SDS011;4757;59.334;18.034;2023-12-20T03:47:08;9.90;;;2.07;;
9436;SDS011;4757;59.334;18.034;2023-12-20T03:49:35;9.67;;;2.43;;
9436;SDS011;4757;59.334;18.034;2023-12-20T03:52:04;13.70;;;3.37;;
9436;SDS011;4757;59.334;18.034;2023-12-20T03:54:31;5.00;;;1.80;;
9436;SDS011;4757;59.334;18.034;2023-12-20T03:56:59;10.07;;;2.00;;
9436;SDS011;4757;59.334;18.034;2023-12-20T03:59:26;9.83;;;2.03;;
9436;SDS011;4757;59.334;18.034;2023-12-20T04:01:54;8.93;;;2.47;;
9436;SDS011;4757;59.334;18.034;2023-12-20T04:04:22;7.40;;;1.93;;
9436;SDS011;4757;59.334;18.034;2023-12-20T04:06:50;4.53;;;1.90;;
9436;SDS011;4757;59.334;18.034;2023-12-20T04:09:18;10.50;;;2.40;;
9436;SDS011;4757;59.334;18.034;2023-12-20T04:11:45;6.60;;;1.83;;
9436;SDS011;4757;59.334;18.034;2023-12-20T04:14:13;7.17;;;2.47;;
9436;SDS011;4757;59.334;18.034;2023-12-20T04:16:41;4.80;;;1.80;;
9436;SDS011;4757;59.334;18.034;2023-12-20T04:19:12;6.97;;;2.20;;
9436;SDS011;4757;59.334;18.034;2023-12-20T04:21:40;8.33;;;2.53;;
9436;SDS011;4757;59.334;18.034;2023-12-20T04:24:07;8.87;;;2.60;;
9436;SDS011;4757;59.334;18.034;2023-12-20T04:26:34;9.70;;;1.93;;
9436;SDS011;4757;59.334;18.034;2023-12-20T04:29:02;8.73;;;2.13;;
9436;SDS011;4757;59.334;18.034;2023-12-20T04:31:30;7.80;;;3.57;;
9436;SDS011;4757;59.334;18.034;2023-12-20T04:33:57;5.53;;;2.37;;
9436;SDS011;4757;59.334;18.034;2023-12-20T04:36:24;6.87;;;1.90;;
9436;SDS011;4757;59.334;18.034;2023-12-20T04:38:53;5.60;;;2.10;;
9436;SDS011;4757;59.334;18.034;2023-12-20T04:41:20;7.50;;;2.23;;
9436;SDS011;4757;59.334;18.034;2023-12-20T04:43:48;6.73;;;1.90;;
9436;SDS011;4757;59.334;18.034;2023-12-20T04:46:15;6.90;;;2.20;;
9436;SDS011;4757;59.334;18.034;2023-12-20T04:48:42;10.07;;;2.73;;
9436;SDS011;4757;59.334;18.034;2023-12-20T04:51:10;4.97;;;1.70;;
9436;SDS011;4757;59.334;18.034;2023-12-20T04:53:37;5.50;;;2.00;;
9436;SDS011;4757;59.334;18.034;2023-12-20T04:56:04;4.73;;;1.93;;
9436;SDS011;4757;59.334;18.034;2023-12-20T04:58:32;4.80;;;2.63;;
9436;SDS011;4757;59.334;18.034;2023-12-20T05:00:59;10.30;;;2.20;;
9436;SDS011;4757;59.334;18.034;2023-12-20T05:03:26;4.63;;;1.70;;
9436;SDS011;4757;59.334;18.034;2023-12-20T05:05:54;5.03;;;2.40;;
9436;SDS011;4757;59.334;18.034;2023-12-20T05:08:21;6.83;;;1.53;;
9436;SDS011;4757;59.334;18.034;2023-12-20T05:10:48;5.80;;;1.77;;
9436;SDS011;4757;59.334;18.034;2023-12-20T05:13:16;3.87;;;2.87;;
9436;SDS011;4757;59.334;18.034;2023-12-20T05:15:43;5.77;;;2.30;;
9436;SDS011;4757;59.334;18.034;2023-12-20T05:18:10;4.50;;;2.00;;
9436;SDS011;4757;59.334;18.034;2023-12-20T05:20:38;8.83;;;3.00;;
9436;SDS011;4757;59.334;18.034;2023-12-20T05:23:05;5.67;;;2.97;;
9436;SDS011;4757;59.334;18.034;2023-12-20T05:25:33;5.77;;;1.73;;
9436;SDS011;4757;59.334;18.034;2023-12-20T05:28:00;7.23;;;2.13;;
9436;SDS011;4757;59.334;18.034;2023-12-20T05:30:28;8.33;;;2.20;;
9436;SDS011;4757;59.334;18.034;2023-12-20T05:32:55;9.27;;;2.00;;
9436;SDS011;4757;59.334;18.034;2023-12-20T05:35:34;14.40;;;2.90;;
9436;SDS011;4757;59.334;18.034;2023-12-20T05:38:01;7.00;;;1.67;;
9436;SDS011;4757;59.334;18.034;2023-12-20T05:40:29;7.43;;;2.00;;
9436;SDS011;4757;59.334;18.034;2023-12-20T05:42:56;6.53;;;2.23;;
9436;SDS011;4757;59.334;18.034;2023-12-20T05:45:23;5.67;;;1.80;;
9436;SDS011;4757;59.334;18.034;2023-12-20T05:47:52;4.07;;;2.40;;
9436;SDS011;4757;59.334;18.034;2023-12-20T05:50:20;4.17;;;1.83;;
9436;SDS011;4757;59.334;18.034;2023-12-20T05:52:48;6.33;;;3.17;;
9436;SDS011;4757;59.334;18.034;2023-12-20T05:55:16;5.43;;;2.13;;
9436;SDS011;4757;59.334;18.034;2023-12-20T05:57:44;3.53;;;1.70;;
9436;SDS011;4757;59.334;18.034;2023-12-20T06:00:12;6.00;;;2.20;;
9436;SDS011;4757;59.334;18.034;2023-12-20T06:02:40;4.27;;;2.13;;
9436;SDS011;4757;59.334;18.034;2023-12-20T06:05:08;5.40;;;2.30;;
9436;SDS011;4757;59.334;18.034;2023-12-20T06:07:36;5.10;;;2.57;;
9436;SDS011;4757;59.334;18.034;2023-12-20T06:10:04;10.13;;;3.93;;
9436;SDS011;4757;59.334;18.034;2023-12-20T06:12:32;8.37;;;2.33;;
9436;SDS011;4757;59.334;18.034;2023-12-20T06:15:02;5.77;;;1.70;;
9436;SDS011;4757;59.334;18.034;2023-12-20T06:17:30;6.17;;;2.20;;
9436;SDS011;4757;59.334;18.034;2023-12-20T06:20:04;9.23;;;3.57;;
9436;SDS011;4757;59.334;18.034;2023-12-20T06:22:35;4.87;;;2.30;;
9436;SDS011;4757;59.334;18.034;2023-12-20T06:25:04;8.23;;;2.13;;
9436;SDS011;4757;59.334;18.034;2023-12-20T06:27:41;10.20;;;2.57;;
9436;SDS011;4757;59.334;18.034;2023-12-20T06:30:09;3.57;;;1.80;;
9436;SDS011;4757;59.334;18.034;2023-12-20T06:32:37;6.47;;;1.97;;
9436;SDS011;4757;59.334;18.034;2023-12-20T06:35:13;6.07;;;2.23;;
9436;SDS011;4757;59.334;18.034;2023-12-20T06:37:40;7.70;;;2.77;;
9436;SDS011;4757;59.334;18.034;2023-12-20T06:40:09;4.83;;;1.93;;
9436;SDS011;4757;59.334;18.034;2023-12-20T06:42:43;9.57;;;2.57;;
9436;SDS011;4757;59.334;18.034;2023-12-20T06:45:24;8.73;;;2.77;;
9436;SDS011;4757;59.334;18.034;2023-12-20T06:47:52;8.23;;;2.43;;
9436;SDS011;4757;59.334;18.034;2023-12-20T06:50:21;8.07;;;3.87;;
9436;SDS011;4757;59.334;18.034;2023-12-20T06:52:48;9.07;;;5.13;;
9436;SDS011;4757;59.334;18.034;2023-12-20T06:55:17;5.73;;;2.70;;
9436;SDS011;4757;59.334;18.034;2023-12-20T06:57:44;6.83;;;3.07;;
9436;SDS011;4757;59.334;18.034;2023-12-20T07:00:13;10.70;;;3.50;;
9436;SDS011;4757;59.334;18.034;2023-12-20T07:02:40;15.10;;;4.27;;
9436;SDS011;4757;59.334;18.034;2023-12-20T07:05:08;8.03;;;3.90;;
9436;SDS011;4757;59.334;18.034;2023-12-20T07:07:36;12.77;;;4.40;;
9436;SDS011;4757;59.334;18.034;2023-12-20T07:10:04;11.07;;;5.90;;
9436;SDS011;4757;59.334;18.034;2023-12-20T07:12:32;13.00;;;5.00;;
9436;SDS011;4757;59.334;18.034;2023-12-20T07:15:13;8.23;;;4.10;;
9436;SDS011;4757;59.334;18.034;2023-12-20T07:17:40;19.13;;;4.67;;
9436;SDS011;4757;59.334;18.034;2023-12-20T07:20:08;10.13;;;4.23;;
9436;SDS011;4757;59.334;18.034;2023-12-20T07:22:37;8.50;;;4.50;;
9436;SDS011;4757;59.334;18.034;2023-12-20T07:25:06;14.30;;;4.67;;
9436;SDS011;4757;59.334;18.034;2023-12-20T07:27:34;12.70;;;4.97;;
9436;SDS011;4757;59.334;18.034;2023-12-20T07:30:13;10.77;;;4.90;;
9436;SDS011;4757;59.334;18.034;2023-12-20T07:32:42;15.40;;;6.20;;
9436;SDS011;4757;59.334;18.034;2023-12-20T07:35:10;11.27;;;6.17;;
9436;SDS011;4757;59.334;18.034;2023-12-20T07:37:39;17.17;;;5.37;;
9436;SDS011;4757;59.334;18.034;2023-12-20T07:40:21;12.97;;;5.03;;
9436;SDS011;4757;59.334;18.034;2023-12-20T07:42:49;10.23;;;5.90;;
9436;SDS011;4757;59.334;18.034;2023-12-20T07:45:17;16.57;;;5.97;;
9436;SDS011;4757;59.334;18.034;2023-12-20T07:47:44;10.03;;;5.57;;
9436;SDS011;4757;59.334;18.034;2023-12-20T07:50:15;14.27;;;5.47;;
9436;SDS011;4757;59.334;18.034;2023-12-20T07:52:43;16.77;;;5.07;;
9436;SDS011;4757;59.334;18.034;2023-12-20T07:55:10;11.03;;;4.70;;
9436;SDS011;4757;59.334;18.034;2023-12-20T07:57:38;12.27;;;4.63;;
9436;SDS011;4757;59.334;18.034;2023-12-20T08:00:08;11.43;;;5.57;;
9436;SDS011;4757;59.334;18.034;2023-12-20T08:02:36;8.37;;;4.77;;
9436;SDS011;4757;59.334;18.034;2023-12-20T08:05:03;9.70;;;4.27;;
9436;SDS011;4757;59.334;18.034;2023-12-20T08:07:33;13.00;;;4.77;;
9436;SDS011;4757;59.334;18.034;2023-12-20T08:10:02;18.13;;;5.40;;
9436;SDS011;4757;59.334;18.034;2023-12-20T08:12:30;9.33;;;5.20;;
9436;SDS011;4757;59.334;18.034;2023-12-20T08:15:04;9.37;;;4.47;;
9436;SDS011;4757;59.334;18.034;2023-12-20T08:17:32;8.90;;;3.87;;
9436;SDS011;4757;59.334;18.034;2023-12-20T08:19:59;18.57;;;8.03;;
9436;SDS011;4757;59.334;18.034;2023-12-20T08:22:30;10.10;;;3.80;;
9436;SDS011;4757;59.334;18.034;2023-12-20T08:24:57;9.57;;;4.03;;
9436;SDS011;4757;59.334;18.034;2023-12-20T08:27:26;14.13;;;4.60;;
9436;SDS011;4757;59.334;18.034;2023-12-20T08:29:53;12.77;;;3.37;;
9436;SDS011;4757;59.334;18.034;2023-12-20T08:32:21;10.40;;;4.03;;
9436;SDS011;4757;59.334;18.034;2023-12-20T08:34:48;8.50;;;3.40;;
9436;SDS011;4757;59.334;18.034;2023-12-20T08:37:16;7.57;;;4.40;;
9436;SDS011;4757;59.334;18.034;2023-12-20T08:39:43;9.53;;;3.60;;
9436;SDS011;4757;59.334;18.034;2023-12-20T08:42:11;8.60;;;3.80;;
9436;SDS011;4757;59.334;18.034;2023-12-20T08:44:38;8.50;;;4.00;;
9436;SDS011;4757;59.334;18.034;2023-12-20T08:47:06;8.53;;;3.73;;
9436;SDS011;4757;59.334;18.034;2023-12-20T08:49:34;9.83;;;4.30;;
9436;SDS011;4757;59.334;18.034;2023-12-20T08:52:01;14.93;;;5.07;;
9436;SDS011;4757;59.334;18.034;2023-12-20T08:54:28;15.33;;;6.27;;
9436;SDS011;4757;59.334;18.034;2023-12-20T08:56:55;13.53;;;3.97;;
9436;SDS011;4757;59.334;18.034;2023-12-20T08:59:23;10.33;;;3.57;;
9436;SDS011;4757;59.334;18.034;2023-12-20T09:01:50;12.43;;;4.47;;
9436;SDS011;4757;59.334;18.034;2023-12-20T09:04:21;5.13;;;3.60;;
9436;SDS011;4757;59.334;18.034;2023-12-20T09:06:48;7.47;;;4.37;;
9436;SDS011;4757;59.334;18.034;2023-12-20T09:09:16;7.47;;;4.13;;
9436;SDS011;4757;59.334;18.034;2023-12-20T09:11:43;9.10;;;4.80;;
9436;SDS011;4757;59.334;18.034;2023-12-20T09:14:12;6.37;;;3.33;;
9436;SDS011;4757;59.334;18.034;2023-12-20T09:16:40;9.97;;;3.37;;
9436;SDS011;4757;59.334;18.034;2023-12-20T09:19:08;14.07;;;4.90;;
9436;SDS011;4757;59.334;18.034;2023-12-20T09:21:35;7.30;;;3.23;;
9436;SDS011;4757;59.334;18.034;2023-12-20T09:24:02;11.43;;;4.07;;
9436;SDS011;4757;59.334;18.034;2023-12-20T09:26:29;11.17;;;3.50;;
9436;SDS011;4757;59.334;18.034;2023-12-20T09:28:56;11.53;;;5.40;;
9436;SDS011;4757;59.334;18.034;2023-12-20T09:31:23;11.10;;;3.40;;
9436;SDS011;4757;59.334;18.034;2023-12-20T09:33:51;7.03;;;3.10;;
9436;SDS011;4757;59.334;18.034;2023-12-20T09:36:19;7.50;;;2.97;;
9436;SDS011;4757;59.334;18.034;2023-12-20T09:38:46;8.53;;;4.40;;
9436;SDS011;4757;59.334;18.034;2023-12-20T09:41:13;11.20;;;3.53;;
9436;SDS011;4757;59.334;18.034;2023-12-20T09:43:41;9.63;;;3.60;;
9436;SDS011;4757;59.334;18.034;2023-12-20T09:46:08;11.63;;;3.70;;
9436;SDS011;4757;59.334;18.034;2023-12-20T09:48:41;5.20;;;2.60;;
9436;SDS011;4757;59.334;18.034;2023-12-20T09:51:11;12.20;;;3.43;;
9436;SDS011;4757;59.334;18.034;2023-12-20T09:53:39;6.57;;;2.67;;
9436;SDS011;4757;59.334;18.034;2023-12-20T09:56:08;7.90;;;2.67;;
9436;SDS011;4757;59.334;18.034;2023-12-20T09:58:38;15.10;;;4.50;;
9436;SDS011;4757;59.334;18.034;2023-12-20T10:01:06;4.70;;;2.67;;
9436;SDS011;4757;59.334;18.034;2023-12-20T10:03:34;7.63;;;2.90;;
9436;SDS011;4757;59.334;18.034;2023-12-20T10:06:02;12.50;;;3.73;;
9436;SDS011;4757;59.334;18.034;2023-12-20T10:08:30;5.30;;;3.03;;
9436;SDS011;4757;59.334;18.034;2023-12-20T10:10:58;10.90;;;2.87;;
9436;SDS011;4757;59.334;18.034;2023-12-20T10:13:29;8.43;;;3.00;;
9436;SDS011;4757;59.334;18.034;2023-12-20T10:15:56;7.93;;;2.83;;
9436;SDS011;4757;59.334;18.034;2023-12-20T10:18:24;5.30;;;3.30;;
9436;SDS011;4757;59.334;18.034;2023-12-20T10:21:04;5.17;;;2.67;;
9436;SDS011;4757;59.334;18.034;2023-12-20T10:23:33;8.93;;;3.20;;
9436;SDS011;4757;59.334;18.034;2023-12-20T10:26:00;8.37;;;3.03;;
9436;SDS011;4757;59.334;18.034;2023-12-20T10:28:28;7.50;;;2.93;;
9436;SDS011;4757;59.334;18.034;2023-12-20T10:31:01;5.13;;;2.37;;
9436;SDS011;4757;59.334;18.034;2023-12-20T10:33:29;8.77;;;3.33;;
9436;SDS011;4757;59.334;18.034;2023-12-20T10:36:01;6.43;;;3.47;;
9436;SDS011;4757;59.334;18.034;2023-12-20T10:38:29;11.87;;;3.47;;
9436;SDS011;4757;59.334;18.034;2023-12-20T10:40:57;9.10;;;2.70;;
9436;SDS011;4757;59.334;18.034;2023-12-20T10:43:28;7.63;;;2.80;;
9436;SDS011;4757;59.334;18.034;2023-12-20T10:45:57;7.17;;;2.77;;
9436;SDS011;4757;59.334;18.034;2023-12-20T10:48:25;7.07;;;2.63;;
9436;SDS011;4757;59.334;18.034;2023-12-20T10:50:57;12.83;;;3.27;;
9436;SDS011;4757;59.334;18.034;2023-12-20T10:53:25;5.70;;;2.97;;
9436;SDS011;4757;59.334;18.034;2023-12-20T10:55:52;9.03;;;3.30;;
9436;SDS011;4757;59.334;18.034;2023-12-20T10:58:25;10.80;;;3.67;;
9436;SDS011;4757;59.334;18.034;2023-12-20T11:00:59;14.70;;;3.83;;
9436;SDS011;4757;59.334;18.034;2023-12-20T11:03:31;8.70;;;2.50;;
9436;SDS011;4757;59.334;18.034;2023-12-20T11:06:03;6.90;;;2.70;;
9436;SDS011;4757;59.334;18.034;2023-12-20T11:11:52;9.97;;;3.93;;
9436;SDS011;4757;59.334;18.034;2023-12-20T11:14:42;5.20;;;2.30;;
9436;SDS011;4757;59.334;18.034;2023-12-20T11:17:14;4.50;;;2.00;;
9436;SDS011;4757;59.334;18.034;2023-12-20T11:22:25;6.80;;;3.17;;
9436;SDS011;4757;59.334;18.034;2023-12-20T11:24:54;5.63;;;2.00;;
9436;SDS011;4757;59.334;18.034;2023-12-20T11:27:30;9.00;;;3.27;;
9436;SDS011;4757;59.334;18.034;2023-12-20T11:29:58;4.77;;;1.93;;
9436;SDS011;4757;59.334;18.034;2023-12-20T11:32:28;7.40;;;2.27;;
9436;SDS011;4757;59.334;18.034;2023-12-20T11:34:57;3.50;;;1.87;;
9436;SDS011;4757;59.334;18.034;2023-12-20T11:37:29;5.87;;;2.10;;
9436;SDS011;4757;59.334;18.034;2023-12-20T11:40:08;3.47;;;1.70;;
9436;SDS011;4757;59.334;18.034;2023-12-20T11:42:38;5.23;;;3.13;;
9436;SDS011;4757;59.334;18.034;2023-12-20T11:45:19;4.53;;;1.80;;
9436;SDS011;4757;59.334;18.034;2023-12-20T11:47:49;6.73;;;2.00;;
9436;SDS011;4757;59.334;18.034;2023-12-20T11:50:19;3.13;;;2.07;;
9436;SDS011;4757;59.334;18.034;2023-12-20T11:52:48;7.03;;;2.43;;
9436;SDS011;4757;59.334;18.034;2023-12-20T11:55:16;4.47;;;1.83;;
9436;SDS011;4757;59.334;18.034;2023-12-20T11:57:43;8.10;;;2.17;;
9436;SDS011;4757;59.334;18.034;2023-12-20T12:00:14;7.13;;;2.37;;
9436;SDS011;4757;59.334;18.034;2023-12-20T12:02:54;5.80;;;2.00;;
9436;SDS011;4757;59.334;18.034;2023-12-20T12:05:23;4.07;;;1.37;;
9436;SDS011;4757;59.334;18.034;2023-12-20T12:07:53;2.37;;;1.43;;
9436;SDS011;4757;59.334;18.034;2023-12-20T12:10:21;4.97;;;2.07;;
9436;SDS011;4757;59.334;18.034;2023-12-20T12:12:49;3.33;;;1.53;;
9436;SDS011;4757;59.334;18.034;2023-12-20T12:15:17;2.47;;;1.60;;
9436;SDS011;4757;59.334;18.034;2023-12-20T12:17:52;6.93;;;2.73;;
9436;SDS011;4757;59.334;18.034;2023-12-20T12:20:22;4.73;;;2.20;;
9436;SDS011;4757;59.334;18.034;2023-12-20T12:23:03;3.00;;;2.00;;
9436;SDS011;4757;59.334;18.034;2023-12-20T12:25:32;2.07;;;1.50;;
9436;SDS011;4757;59.334;18.034;2023-12-20T12:28:06;3.23;;;2.20;;
9436;SDS011;4757;59.334;18.034;2023-12-20T12:30:33;6.20;;;2.23;;
9436;SDS011;4757;59.334;18.034;2023-12-20T12:33:11;1.40;;;1.27;;
9436;SDS011;4757;59.334;18.034;2023-12-20T12:35:39;2.57;;;1.40;;
9436;SDS011;4757;59.334;18.034;2023-12-20T12:38:07;2.03;;;1.23;;
9436;SDS011;4757;59.334;18.034;2023-12-20T12:40:35;3.40;;;1.13;;
9436;SDS011;4757;59.334;18.034;2023-12-20T12:43:03;1.83;;;1.30;;
9436;SDS011;4757;59.334;18.034;2023-12-20T12:45:31;2.23;;;1.67;;
9436;SDS011;4757;59.334;18.034;2023-12-20T12:47:59;3.20;;;1.43;;
9436;SDS011;4757;59.334;18.034;2023-12-20T12:50:26;3.77;;;2.53;;
9436;SDS011;4757;59.334;18.034;2023-12-20T12:52:55;8.53;;;7.03;;
9436;SDS011;4757;59.334;18.034;2023-12-20T12:55:22;2.63;;;2.23;;
9436;SDS011;4757;59.334;18.034;2023-12-20T12:57:50;4.17;;;2.53;;
9436;SDS011;4757;59.334;18.034;2023-12-20T13:00:17;3.90;;;3.60;;
9436;SDS011;4757;59.334;18.034;2023-12-20T13:02:45;5.07;;;4.30;;
9436;SDS011;4757;59.334;18.034;2023-12-20T13:05:13;2.80;;;2.60;;
9436;SDS011;4757;59.334;18.034;2023-12-20T13:07:41;5.73;;;5.10;;
9436;SDS011;4757;59.334;18.034;2023-12-20T13:10:25;3.10;;;2.70;;
9436;SDS011;4757;59.334;18.034;2023-12-20T13:12:54;5.60;;;4.23;;
9436;SDS011;4757;59.334;18.034;2023-12-20T13:15:21;5.07;;;3.10;;
9436;SDS011;4757;59.334;18.034;2023-12-20T13:17:48;4.37;;;3.77;;
9436;SDS011;4757;59.334;18.034;2023-12-20T13:20:18;7.57;;;6.87;;
9436;SDS011;4757;59.334;18.034;2023-12-20T13:22:45;3.17;;;2.80;;
9436;SDS011;4757;59.334;18.034;2023-12-20T13:25:13;5.67;;;3.93;;
9436;SDS011;4757;59.334;18.034;2023-12-20T13:27:41;7.67;;;7.03;;
9436;SDS011;4757;59.334;18.034;2023-12-20T13:30:09;4.60;;;4.23;;
9436;SDS011;4757;59.334;18.034;2023-12-20T13:32:36;7.40;;;6.60;;
9436;SDS011;4757;59.334;18.034;2023-12-20T13:35:04;4.60;;;3.70;;
9436;SDS011;4757;59.334;18.034;2023-12-20T13:37:34;10.33;;;7.40;;
9436;SDS011;4757;59.334;18.034;2023-12-20T13:40:01;6.10;;;4.93;;
9436;SDS011;4757;59.334;18.034;2023-12-20T13:42:31;6.57;;;3.10;;
9436;SDS011;4757;59.334;18.034;2023-12-20T13:44:58;4.37;;;3.97;;
9436;SDS011;4757;59.334;18.034;2023-12-20T13:47:29;6.70;;;3.90;;
9436;SDS011;4757;59.334;18.034;2023-12-20T13:50:11;12.73;;;4.17;;
9436;SDS011;4757;59.334;18.034;2023-12-20T13:52:39;5.53;;;3.63;;
9436;SDS011;4757;59.334;18.034;2023-12-20T13:55:06;4.97;;;3.10;;
9436;SDS011;4757;59.334;18.034;2023-12-20T13:57:57;16.17;;;7.53;;
9436;SDS011;4757;59.334;18.034;2023-12-20T14:00:28;11.70;;;6.47;;
9436;SDS011;4757;59.334;18.034;2023-12-20T14:03:03;7.10;;;3.27;;
9436;SDS011;4757;59.334;18.034;2023-12-20T14:05:30;7.10;;;5.87;;
9436;SDS011;4757;59.334;18.034;2023-12-20T14:08:01;8.40;;;5.47;;
9436;SDS011;4757;59.334;18.034;2023-12-20T14:10:29;6.07;;;5.50;;
9436;SDS011;4757;59.334;18.034;2023-12-20T14:12:56;8.17;;;7.47;;
9436;SDS011;4757;59.334;18.034;2023-12-20T14:15:23;7.30;;;3.80;;
9436;SDS011;4757;59.334;18.034;2023-12-20T14:17:52;7.90;;;4.00;;
9436;SDS011;4757;59.334;18.034;2023-12-20T14:20:20;4.37;;;2.93;;
9436;SDS011;4757;59.334;18.034;2023-12-20T14:22:47;5.83;;;5.27;;
9436;SDS011;4757;59.334;18.034;2023-12-20T14:25:15;6.43;;;5.77;;
9436;SDS011;4757;59.334;18.034;2023-12-20T14:27:43;6.27;;;4.40;;
9436;SDS011;4757;59.334;18.034;2023-12-20T14:30:12;10.37;;;5.10;;
9436;SDS011;4757;59.334;18.034;2023-12-20T14:32:51;4.33;;;3.23;;
9436;SDS011;4757;59.334;18.034;2023-12-20T14:35:19;6.40;;;3.70;;
9436;SDS011;4757;59.334;18.034;2023-12-20T14:37:47;7.47;;;6.43;;
9436;SDS011;4757;59.334;18.034;2023-12-20T14:40:30;7.80;;;5.03;;
9436;SDS011;4757;59.334;18.034;2023-12-20T14:43:10;6.10;;;3.50;;
9436;SDS011;4757;59.334;18.034;2023-12-20T14:45:51;6.93;;;3.70;;
9436;SDS011;4757;59.334;18.034;2023-12-20T14:48:19;7.47;;;2.53;;
9436;SDS011;4757;59.334;18.034;2023-12-20T14:50:47;6.03;;;3.00;;
9436;SDS011;4757;59.334;18.034;2023-12-20T14:53:18;7.80;;;6.10;;
9436;SDS011;4757;59.334;18.034;2023-12-20T14:55:48;8.33;;;6.60;;
9436;SDS011;4757;59.334;18.034;2023-12-20T14:58:17;7.23;;;5.97;;
9436;SDS011;4757;59.334;18.034;2023-12-20T15:00:52;9.97;;;6.27;;
9436;SDS011;4757;59.334;18.034;2023-12-20T15:03:33;7.50;;;5.17;;
9436;SDS011;4757;59.334;18.034;2023-12-20T15:06:24;3.27;;;2.90;;
9436;SDS011;4757;59.334;18.034;2023-12-20T15:09:08;17.83;;;12.60;;
9436;SDS011;4757;59.334;18.034;2023-12-20T15:11:52;8.97;;;6.63;;
9436;SDS011;4757;59.334;18.034;2023-12-20T15:14:34;8.70;;;7.90;;